sensor_id;sensor_type;location;lat;lon;timestamp;noise_LAeq;noise_LA_min;noise_LA_max;noise_LA01;noise_LA95
84588;Laerm;74812;47.466;8.992;2024-01-06T00:01:15;50.82;47.14;57.64;;
84588;Laerm;74812;47.466;8.992;2024-01-06T00:03:40;50.60;47.18;56.61;;
84588;Laerm;74812;47.466;8.992;2024-01-06T00:06:05;50.73;47.20;56.53;;
84588;Laerm;74812;47.466;8.992;2024-01-06T00:08:31;51.02;47.84;56.01;;
84588;Laerm;74812;47.466;8.992;2024-01-06T00:10:56;51.37;47.78;56.83;;
84588;Laerm;74812;47.466;8.992;2024-01-06T00:13:22;50.62;46.45;56.73;;
84588;Laerm;74812;47.466;8.992;2024-01-06T00:15:47;50.48;46.73;56.29;;
84588;Laerm;74812;47.466;8.992;2024-01-06T00:18:13;52.03;48.18;57.00;;
84588;Laerm;74812;47.466;8.992;2024-01-06T00:20:38;51.51;48.03;56.11;;
84588;Laerm;74812;47.466;8.992;2024-01-06T00:23:04;54.82;49.41;61.76;;
84588;Laerm;74812;47.466;8.992;2024-01-06T00:25:29;56.19;51.26;61.68;;
84588;Laerm;74812;47.466;8.992;2024-01-06T00:27:54;54.59;51.07;58.84;;
84588;Laerm;74812;47.466;8.992;2024-01-06T00:30:20;54.16;49.80;59.65;;
84588;Laerm;74812;47.466;8.992;2024-01-06T00:32:45;53.30;49.77;57.59;;
84588;Laerm;74812;47.466;8.992;2024-01-06T00:35:11;54.07;49.55;59.18;;
84588;Laerm;74812;47.466;8.992;2024-01-06T00:37:36;53.17;48.58;58.62;;
84588;Laerm;74812;47.466;8.992;2024-01-06T00:40:01;52.46;48.66;57.81;;
84588;Laerm;74812;47.466;8.992;2024-01-06T00:42:27;51.43;48.15;57.23;;
84588;Laerm;74812;47.466;8.992;2024-01-06T00:44:53;51.37;47.61;56.93;;
84588;Laerm;74812;47.466;8.992;2024-01-06T00:47:18;50.78;47.22;56.87;;
84588;Laerm;74812;47.466;8.992;2024-01-06T00:49:43;50.62;47.06;57.34;;
84588;Laerm;74812;47.466;8.992;2024-01-06T00:52:10;51.04;47.65;55.24;;
84588;Laerm;74812;47.466;8.992;2024-01-06T00:54:35;50.76;47.48;55.38;;
84588;Laerm;74812;47.466;8.992;2024-01-06T00:57:01;51.18;47.93;56.68;;
84588;Laerm;74812;47.466;8.992;2024-01-06T00:59:26;50.83;47.40;56.57;;
84588;Laerm;74812;47.466;8.992;2024-01-06T01:01:52;50.49;47.34;55.35;;
84588;Laerm;74812;47.466;8.992;2024-01-06T01:04:17;50.25;46.69;56.32;;
84588;Laerm;74812;47.466;8.992;2024-01-06T01:06:43;50.71;47.44;55.97;;
84588;Laerm;74812;47.466;8.992;2024-01-06T01:09:08;50.43;47.05;55.93;;
84588;Laerm;74812;47.466;8.992;2024-01-06T01:11:35;50.57;47.28;55.61;;
84588;Laerm;74812;47.466;8.992;2024-01-06T01:14:01;50.39;46.55;56.89;;
84588;Laerm;74812;47.466;8.992;2024-01-06T01:16:26;50.35;46.59;55.58;;
84588;Laerm;74812;47.466;8.992;2024-01-06T01:18:51;50.80;47.61;57.17;;
84588;Laerm;74812;47.466;8.992;2024-01-06T01:21:16;50.94;47.59;55.98;;
84588;Laerm;74812;47.466;8.992;2024-01-06T01:23:42;50.98;47.50;58.33;;
84588;Laerm;74812;47.466;8.992;2024-01-06T01:26:07;50.80;47.59;56.24;;
84588;Laerm;74812;47.466;8.992;2024-01-06T01:28:33;50.84;47.22;55.91;;
84588;Laerm;74812;47.466;8.992;2024-01-06T01:30:58;51.32;47.42;57.52;;
84588;Laerm;74812;47.466;8.992;2024-01-06T01:33:24;51.40;47.96;58.20;;
84588;Laerm;74812;47.466;8.992;2024-01-06T01:35:50;51.18;47.77;57.58;;
84588;Laerm;74812;47.466;8.992;2024-01-06T01:38:16;51.12;47.61;57.40;;
84588;Laerm;74812;47.466;8.992;2024-01-06T01:40:41;50.98;47.22;58.62;;
84588;Laerm;74812;47.466;8.992;2024-01-06T01:43:15;50.68;47.42;58.84;;
84588;Laerm;74812;47.466;8.992;2024-01-06T01:45:40;50.68;47.46;58.12;;
84588;Laerm;74812;47.466;8.992;2024-01-06T01:48:06;50.44;46.95;57.65;;
84588;Laerm;74812;47.466;8.992;2024-01-06T01:50:32;50.28;47.06;58.40;;
84588;Laerm;74812;47.466;8.992;2024-01-06T01:52:57;50.33;46.76;57.40;;
84588;Laerm;74812;47.466;8.992;2024-01-06T01:55:22;49.97;46.84;56.88;;
84588;Laerm;74812;47.466;8.992;2024-01-06T01:57:48;49.86;46.57;56.89;;
84588;Laerm;74812;47.466;8.992;2024-01-06T02:00:13;49.65;46.10;56.56;;
84588;Laerm;74812;47.466;8.992;2024-01-06T02:02:39;49.40;46.10;54.96;;
84588;Laerm;74812;47.466;8.992;2024-01-06T02:05:04;49.23;45.91;56.24;;
84588;Laerm;74812;47.466;8.992;2024-01-06T02:07:29;49.41;46.05;57.84;;
84588;Laerm;74812;47.466;8.992;2024-01-06T02:09:55;49.21;45.86;57.44;;
84588;Laerm;74812;47.466;8.992;2024-01-06T02:12:20;49.25;46.18;57.20;;
84588;Laerm;74812;47.466;8.992;2024-01-06T02:14:45;49.05;45.72;57.89;;
84588;Laerm;74812;47.466;8.992;2024-01-06T02:17:11;49.10;45.91;55.22;;
84588;Laerm;74812;47.466;8.992;2024-01-06T02:19:36;48.98;46.10;55.77;;
84588;Laerm;74812;47.466;8.992;2024-01-06T02:22:02;49.04;45.97;53.63;;
84588;Laerm;74812;47.466;8.992;2024-01-06T02:24:27;49.24;46.10;56.71;;
84588;Laerm;74812;47.466;8.992;2024-01-06T02:26:52;49.27;46.23;54.36;;
84588;Laerm;74812;47.466;8.992;2024-01-06T02:29:18;48.85;45.57;54.21;;
84588;Laerm;74812;47.466;8.992;2024-01-06T02:31:43;48.53;45.77;55.62;;
84588;Laerm;74812;47.466;8.992;2024-01-06T02:34:09;48.38;45.33;54.68;;
84588;Laerm;74812;47.466;8.992;2024-01-06T02:36:34;48.54;45.01;55.43;;
84588;Laerm;74812;47.466;8.992;2024-01-06T02:38:59;48.35;45.27;54.16;;
84588;Laerm;74812;47.466;8.992;2024-01-06T02:41:25;48.20;44.80;55.26;;
84588;Laerm;74812;47.466;8.992;2024-01-06T02:43:50;47.79;44.94;54.29;;
84588;Laerm;74812;47.466;8.992;2024-01-06T02:46:15;47.99;45.14;54.73;;
84588;Laerm;74812;47.466;8.992;2024-01-06T02:48:41;47.74;44.58;57.54;;
84588;Laerm;74812;47.466;8.992;2024-01-06T02:51:06;47.64;44.80;55.12;;
84588;Laerm;74812;47.466;8.992;2024-01-06T02:53:31;47.49;44.42;55.44;;
84588;Laerm;74812;47.466;8.992;2024-01-06T02:55:57;47.24;44.35;53.49;;
84588;Laerm;74812;47.466;8.992;2024-01-06T02:58:22;47.14;44.27;53.79;;
84588;Laerm;74812;47.466;8.992;2024-01-06T03:00:47;47.17;44.54;53.04;;
84588;Laerm;74812;47.466;8.992;2024-01-06T03:03:13;47.18;44.80;53.68;;
84588;Laerm;74812;47.466;8.992;2024-01-06T03:05:38;47.16;44.69;53.25;;
84588;Laerm;74812;47.466;8.992;2024-01-06T03:08:04;46.85;44.47;53.16;;
84588;Laerm;74812;47.466;8.992;2024-01-06T03:10:29;46.73;44.27;56.01;;
84588;Laerm;74812;47.466;8.992;2024-01-06T03:12:54;47.07;44.35;53.85;;
84588;Laerm;74812;47.466;8.992;2024-01-06T03:15:20;47.04;44.35;52.90;;
84588;Laerm;74812;47.466;8.992;2024-01-06T03:17:45;47.17;44.62;51.95;;
84588;Laerm;74812;47.466;8.992;2024-01-06T03:20:10;47.37;45.07;53.28;;
84588;Laerm;74812;47.466;8.992;2024-01-06T03:22:36;47.83;45.30;54.36;;
84588;Laerm;74812;47.466;8.992;2024-01-06T03:25:03;48.94;45.80;56.72;;
84588;Laerm;74812;47.466;8.992;2024-01-06T03:27:28;50.83;47.30;56.23;;
84588;Laerm;74812;47.466;8.992;2024-01-06T03:29:54;50.55;47.36;57.05;;
84588;Laerm;74812;47.466;8.992;2024-01-06T03:32:19;50.39;47.04;58.71;;
84588;Laerm;74812;47.466;8.992;2024-01-06T03:34:44;50.45;47.11;56.11;;
84588;Laerm;74812;47.466;8.992;2024-01-06T03:37:10;50.24;46.95;56.73;;
84588;Laerm;74812;47.466;8.992;2024-01-06T03:39:35;50.31;46.91;60.55;;
84588;Laerm;74812;47.466;8.992;2024-01-06T03:42:00;50.08;46.91;57.69;;
84588;Laerm;74812;47.466;8.992;2024-01-06T03:44:26;50.01;46.80;57.76;;
84588;Laerm;74812;47.466;8.992;2024-01-06T03:46:56;50.11;46.82;56.05;;
84588;Laerm;74812;47.466;8.992;2024-01-06T03:49:21;50.76;46.15;69.61;;
84588;Laerm;74812;47.466;8.992;2024-01-06T03:51:46;49.64;46.55;54.02;;
84588;Laerm;74812;47.466;8.992;2024-01-06T03:54:12;49.59;45.97;57.75;;
84588;Laerm;74812;47.466;8.992;2024-01-06T03:56:37;49.74;46.69;55.69;;
84588;Laerm;74812;47.466;8.992;2024-01-06T03:59:02;50.01;46.45;57.02;;
84588;Laerm;74812;47.466;8.992;2024-01-06T04:01:28;50.01;46.82;55.80;;
84588;Laerm;74812;47.466;8.992;2024-01-06T04:03:54;51.17;47.50;58.69;;
84588;Laerm;74812;47.466;8.992;2024-01-06T04:06:19;49.55;46.33;57.76;;
84588;Laerm;74812;47.466;8.992;2024-01-06T04:08:44;49.76;46.36;61.27;;
84588;Laerm;74812;47.466;8.992;2024-01-06T04:11:10;49.12;45.99;55.38;;
84588;Laerm;74812;47.466;8.992;2024-01-06T04:13:35;49.14;45.51;63.63;;
84588;Laerm;74812;47.466;8.992;2024-01-06T04:16:00;48.94;45.30;55.03;;
84588;Laerm;74812;47.466;8.992;2024-01-06T04:18:26;48.85;45.11;55.70;;
84588;Laerm;74812;47.466;8.992;2024-01-06T04:20:51;49.19;45.80;56.87;;
84588;Laerm;74812;47.466;8.992;2024-01-06T04:23:17;48.98;45.69;56.95;;
84588;Laerm;74812;47.466;8.992;2024-01-06T04:25:42;48.84;45.39;59.85;;
84588;Laerm;74812;47.466;8.992;2024-01-06T04:28:07;48.58;45.39;56.18;;
84588;Laerm;74812;47.466;8.992;2024-01-06T04:30:32;48.88;45.30;55.67;;
84588;Laerm;74812;47.466;8.992;2024-01-06T04:32:58;48.09;45.07;56.40;;
84588;Laerm;74812;47.466;8.992;2024-01-06T04:35:23;48.17;45.14;57.03;;
84588;Laerm;74812;47.466;8.992;2024-01-06T04:37:49;48.70;45.36;58.07;;
84588;Laerm;74812;47.466;8.992;2024-01-06T04:40:14;48.19;45.04;57.61;;
84588;Laerm;74812;47.466;8.992;2024-01-06T04:42:39;48.78;45.33;55.21;;
84588;Laerm;74812;47.466;8.992;2024-01-06T04:45:05;49.05;46.15;55.36;;
84588;Laerm;74812;47.466;8.992;2024-01-06T04:47:30;49.12;45.51;55.50;;
84588;Laerm;74812;47.466;8.992;2024-01-06T04:49:56;49.76;46.20;55.64;;
84588;Laerm;74812;47.466;8.992;2024-01-06T04:52:21;50.28;46.69;55.80;;
84588;Laerm;74812;47.466;8.992;2024-01-06T04:54:47;50.64;47.10;58.46;;
84588;Laerm;74812;47.466;8.992;2024-01-06T04:57:12;50.08;46.55;56.79;;
84588;Laerm;74812;47.466;8.992;2024-01-06T04:59:37;50.06;46.59;58.41;;
84588;Laerm;74812;47.466;8.992;2024-01-06T05:02:03;49.87;46.18;56.96;;
84588;Laerm;74812;47.466;8.992;2024-01-06T05:04:29;51.43;47.08;58.49;;
84588;Laerm;74812;47.466;8.992;2024-01-06T05:06:55;50.16;46.13;56.26;;
84588;Laerm;74812;47.466;8.992;2024-01-06T05:09:21;49.49;46.35;54.96;;
84588;Laerm;74812;47.466;8.992;2024-01-06T05:11:46;49.78;46.93;58.17;;
84588;Laerm;74812;47.466;8.992;2024-01-06T05:14:12;49.73;45.83;56.54;;
84588;Laerm;74812;47.466;8.992;2024-01-06T05:16:37;49.93;46.95;55.34;;
84588;Laerm;74812;47.466;8.992;2024-01-06T05:19:02;50.53;46.80;57.86;;
84588;Laerm;74812;47.466;8.992;2024-01-06T05:21:28;50.15;46.57;56.23;;
84588;Laerm;74812;47.466;8.992;2024-01-06T05:23:53;51.11;47.32;57.60;;
84588;Laerm;74812;47.466;8.992;2024-01-06T05:26:19;49.97;46.33;54.83;;
84588;Laerm;74812;47.466;8.992;2024-01-06T05:28:44;49.40;46.05;55.47;;
84588;Laerm;74812;47.466;8.992;2024-01-06T05:31:13;50.90;46.50;56.87;;
84588;Laerm;74812;47.466;8.992;2024-01-06T05:33:43;49.59;46.18;55.47;;
84588;Laerm;74812;47.466;8.992;2024-01-06T05:36:08;52.93;46.05;70.07;;
84588;Laerm;74812;47.466;8.992;2024-01-06T05:38:33;51.40;46.95;62.23;;
84588;Laerm;74812;47.466;8.992;2024-01-06T05:40:59;49.60;46.02;57.77;;
84588;Laerm;74812;47.466;8.992;2024-01-06T05:43:24;49.39;46.33;55.35;;
84588;Laerm;74812;47.466;8.992;2024-01-06T05:45:49;49.53;46.15;55.34;;
84588;Laerm;74812;47.466;8.992;2024-01-06T05:48:15;49.42;46.40;55.99;;
84588;Laerm;74812;47.466;8.992;2024-01-06T05:50:40;49.16;46.22;54.30;;
84588;Laerm;74812;47.466;8.992;2024-01-06T05:53:06;58.22;46.30;68.72;;
84588;Laerm;74812;47.466;8.992;2024-01-06T05:55:31;48.79;45.66;56.13;;
84588;Laerm;74812;47.466;8.992;2024-01-06T05:57:57;48.72;45.72;54.59;;
84588;Laerm;74812;47.466;8.992;2024-01-06T06:00:22;49.46;45.60;58.63;;
84588;Laerm;74812;47.466;8.992;2024-01-06T06:02:47;50.87;46.30;58.25;;
84588;Laerm;74812;47.466;8.992;2024-01-06T06:05:13;50.12;46.62;56.84;;
84588;Laerm;74812;47.466;8.992;2024-01-06T06:07:38;49.71;46.64;54.91;;
84588;Laerm;74812;47.466;8.992;2024-01-06T06:10:05;49.84;46.73;56.03;;
84588;Laerm;74812;47.466;8.992;2024-01-06T06:12:31;49.86;46.78;57.60;;
84588;Laerm;74812;47.466;8.992;2024-01-06T06:14:56;49.91;46.71;56.28;;
84588;Laerm;74812;47.466;8.992;2024-01-06T06:17:22;49.92;46.76;57.38;;
84588;Laerm;74812;47.466;8.992;2024-01-06T06:19:47;50.44;47.28;57.07;;
84588;Laerm;74812;47.466;8.992;2024-01-06T06:22:12;50.25;46.91;56.24;;
84588;Laerm;74812;47.466;8.992;2024-01-06T06:24:38;50.30;46.87;62.75;;
84588;Laerm;74812;47.466;8.992;2024-01-06T06:27:03;49.48;46.29;56.45;;
84588;Laerm;74812;47.466;8.992;2024-01-06T06:29:28;49.22;46.13;55.37;;
84588;Laerm;74812;47.466;8.992;2024-01-06T06:31:55;48.91;45.17;57.93;;
84588;Laerm;74812;47.466;8.992;2024-01-06T06:34:20;48.60;45.66;60.72;;
84588;Laerm;74812;47.466;8.992;2024-01-06T06:36:45;49.17;45.91;57.54;;
84588;Laerm;74812;47.466;8.992;2024-01-06T06:39:11;49.89;46.35;56.96;;
84588;Laerm;74812;47.466;8.992;2024-01-06T06:41:36;49.52;46.57;54.53;;
84588;Laerm;74812;47.466;8.992;2024-01-06T06:44:02;50.04;46.22;61.20;;
84588;Laerm;74812;47.466;8.992;2024-01-06T06:46:27;50.35;46.78;58.54;;
84588;Laerm;74812;47.466;8.992;2024-01-06T06:48:52;54.23;46.35;68.63;;
84588;Laerm;74812;47.466;8.992;2024-01-06T06:51:18;51.21;46.25;63.95;;
84588;Laerm;74812;47.466;8.992;2024-01-06T06:53:43;49.23;46.45;56.77;;
84588;Laerm;74812;47.466;8.992;2024-01-06T06:56:08;49.04;45.97;55.67;;
84588;Laerm;74812;47.466;8.992;2024-01-06T06:58:34;48.89;45.39;58.71;;
84588;Laerm;74812;47.466;8.992;2024-01-06T07:00:59;49.75;45.69;57.25;;
84588;Laerm;74812;47.466;8.992;2024-01-06T07:03:24;52.28;46.50;65.60;;
84588;Laerm;74812;47.466;8.992;2024-01-06T07:05:52;50.72;45.94;58.81;;
84588;Laerm;74812;47.466;8.992;2024-01-06T07:08:17;49.25;45.94;65.48;;
84588;Laerm;74812;47.466;8.992;2024-01-06T07:10:43;49.28;45.75;54.95;;
84588;Laerm;74812;47.466;8.992;2024-01-06T07:13:08;49.15;46.18;58.57;;
84588;Laerm;74812;47.466;8.992;2024-01-06T07:15:33;49.18;45.80;56.29;;
84588;Laerm;74812;47.466;8.992;2024-01-06T07:17:59;48.96;45.96;58.17;;
84588;Laerm;74812;47.466;8.992;2024-01-06T07:20:24;52.72;46.15;70.85;;
84588;Laerm;74812;47.466;8.992;2024-01-06T07:22:49;50.59;46.40;62.68;;
84588;Laerm;74812;47.466;8.992;2024-01-06T07:25:15;68.95;49.48;81.90;;
84588;Laerm;74812;47.466;8.992;2024-01-06T07:27:40;53.30;46.20;67.90;;
84588;Laerm;74812;47.466;8.992;2024-01-06T07:30:06;53.77;45.66;69.17;;
84588;Laerm;74812;47.466;8.992;2024-01-06T07:32:33;65.02;46.18;82.88;;
84588;Laerm;74812;47.466;8.992;2024-01-06T07:34:58;52.18;45.30;64.91;;
84588;Laerm;74812;47.466;8.992;2024-01-06T07:37:24;49.33;45.11;63.41;;
84588;Laerm;74812;47.466;8.992;2024-01-06T07:39:49;48.20;45.45;61.51;;
84588;Laerm;74812;47.466;8.992;2024-01-06T07:42:14;49.09;45.27;64.19;;
84588;Laerm;74812;47.466;8.992;2024-01-06T07:44:40;50.21;45.14;62.73;;
84588;Laerm;74812;47.466;8.992;2024-01-06T07:47:05;48.40;44.76;56.17;;
84588;Laerm;74812;47.466;8.992;2024-01-06T07:49:30;49.74;45.51;60.64;;
84588;Laerm;74812;47.466;8.992;2024-01-06T07:51:56;57.11;45.23;72.65;;
84588;Laerm;74812;47.466;8.992;2024-01-06T07:54:22;50.87;45.46;65.08;;
84588;Laerm;74812;47.466;8.992;2024-01-06T07:56:48;48.33;45.01;57.83;;
84588;Laerm;74812;47.466;8.992;2024-01-06T07:59:13;48.38;44.94;52.97;;
84588;Laerm;74812;47.466;8.992;2024-01-06T08:01:39;50.01;45.54;61.08;;
84588;Laerm;74812;47.466;8.992;2024-01-06T08:04:04;50.56;45.39;60.78;;
84588;Laerm;74812;47.466;8.992;2024-01-06T08:06:30;47.92;45.11;54.17;;
84588;Laerm;74812;47.466;8.992;2024-01-06T08:08:55;48.59;44.54;75.94;;
84588;Laerm;74812;47.466;8.992;2024-01-06T08:11:21;48.26;44.47;60.31;;
84588;Laerm;74812;47.466;8.992;2024-01-06T08:13:46;50.27;44.19;65.45;;
84588;Laerm;74812;47.466;8.992;2024-01-06T08:16:12;48.48;44.31;66.45;;
84588;Laerm;74812;47.466;8.992;2024-01-06T08:18:37;55.02;45.20;78.05;;
84588;Laerm;74812;47.466;8.992;2024-01-06T08:21:03;49.38;45.48;56.17;;
84588;Laerm;74812;47.466;8.992;2024-01-06T08:23:28;48.66;44.76;66.62;;
84588;Laerm;74812;47.466;8.992;2024-01-06T08:25:53;48.29;45.20;55.28;;
84588;Laerm;74812;47.466;8.992;2024-01-06T08:28:19;52.63;45.04;66.35;;
84588;Laerm;74812;47.466;8.992;2024-01-06T08:30:45;49.40;45.33;61.18;;
84588;Laerm;74812;47.466;8.992;2024-01-06T08:33:10;48.50;44.80;57.09;;
84588;Laerm;74812;47.466;8.992;2024-01-06T08:35:36;48.46;44.62;59.12;;
84588;Laerm;74812;47.466;8.992;2024-01-06T08:38:06;48.95;45.28;57.93;;
84588;Laerm;74812;47.466;8.992;2024-01-06T08:40:31;48.66;45.20;56.47;;
84588;Laerm;74812;47.466;8.992;2024-01-06T08:42:56;50.35;45.17;65.96;;
84588;Laerm;74812;47.466;8.992;2024-01-06T08:45:22;56.50;44.69;69.37;;
84588;Laerm;74812;47.466;8.992;2024-01-06T08:47:47;50.07;45.42;62.05;;
84588;Laerm;74812;47.466;8.992;2024-01-06T08:50:13;50.58;45.27;63.89;;
84588;Laerm;74812;47.466;8.992;2024-01-06T08:52:39;51.88;46.59;68.13;;
84588;Laerm;74812;47.466;8.992;2024-01-06T08:55:04;52.72;44.65;69.33;;
84588;Laerm;74812;47.466;8.992;2024-01-06T08:57:30;48.29;45.01;60.32;;
84588;Laerm;74812;47.466;8.992;2024-01-06T08:59:55;49.35;45.14;64.92;;
84588;Laerm;74812;47.466;8.992;2024-01-06T09:02:20;52.09;44.94;66.02;;
84588;Laerm;74812;47.466;8.992;2024-01-06T09:04:46;51.28;44.94;63.21;;
84588;Laerm;74812;47.466;8.992;2024-01-06T09:07:12;48.13;45.04;63.83;;
84588;Laerm;74812;47.466;8.992;2024-01-06T09:09:37;47.75;44.97;59.81;;
84588;Laerm;74812;47.466;8.992;2024-01-06T09:12:03;52.63;44.80;66.57;;
84588;Laerm;74812;47.466;8.992;2024-01-06T09:14:31;58.05;44.83;80.20;;
84588;Laerm;74812;47.466;8.992;2024-01-06T09:17:54;49.09;45.20;63.02;;
84588;Laerm;74812;47.466;8.992;2024-01-06T09:21:09;49.48;44.80;61.86;;
84588;Laerm;74812;47.466;8.992;2024-01-06T09:23:34;48.28;45.20;61.79;;
84588;Laerm;74812;47.466;8.992;2024-01-06T09:26:00;48.45;45.30;60.42;;
84588;Laerm;74812;47.466;8.992;2024-01-06T09:28:26;48.41;45.07;56.94;;
84588;Laerm;74812;47.466;8.992;2024-01-06T09:30:51;55.10;45.42;65.92;;
84588;Laerm;74812;47.466;8.992;2024-01-06T09:33:19;53.86;45.23;70.17;;
84588;Laerm;74812;47.466;8.992;2024-01-06T09:35:45;52.09;44.97;66.88;;
84588;Laerm;74812;47.466;8.992;2024-01-06T09:38:10;54.82;44.80;69.77;;
84588;Laerm;74812;47.466;8.992;2024-01-06T09:40:36;48.95;45.07;56.04;;
84588;Laerm;74812;47.466;8.992;2024-01-06T09:43:06;47.86;44.76;56.59;;
84588;Laerm;74812;47.466;8.992;2024-01-06T09:45:31;48.05;45.01;54.45;;
84588;Laerm;74812;47.466;8.992;2024-01-06T09:47:57;55.43;44.83;72.98;;
84588;Laerm;74812;47.466;8.992;2024-01-06T09:50:23;52.44;44.97;66.93;;
84588;Laerm;74812;47.466;8.992;2024-01-06T09:52:48;52.35;45.23;71.10;;
84588;Laerm;74812;47.466;8.992;2024-01-06T09:55:29;52.39;44.80;66.15;;
84588;Laerm;74812;47.466;8.992;2024-01-06T09:57:54;48.45;45.11;59.25;;
84588;Laerm;74812;47.466;8.992;2024-01-06T10:00:20;49.68;45.33;63.27;;
84588;Laerm;74812;47.466;8.992;2024-01-06T10:02:49;50.21;44.87;59.07;;
84588;Laerm;74812;47.466;8.992;2024-01-06T10:05:16;52.10;45.48;68.29;;
84588;Laerm;74812;47.466;8.992;2024-01-06T10:07:42;54.75;45.17;66.85;;
84588;Laerm;74812;47.466;8.992;2024-01-06T10:10:09;48.40;45.01;63.04;;
84588;Laerm;74812;47.466;8.992;2024-01-06T10:12:39;52.47;44.87;67.88;;
84588;Laerm;74812;47.466;8.992;2024-01-06T10:15:05;52.85;45.30;67.21;;
84588;Laerm;74812;47.466;8.992;2024-01-06T10:17:31;58.00;45.17;73.99;;
84588;Laerm;74812;47.466;8.992;2024-01-06T10:19:56;50.73;45.66;61.36;;
84588;Laerm;74812;47.466;8.992;2024-01-06T10:22:22;54.12;45.14;69.30;;
84588;Laerm;74812;47.466;8.992;2024-01-06T10:24:47;47.89;45.30;54.23;;
84588;Laerm;74812;47.466;8.992;2024-01-06T10:27:13;53.85;45.04;69.52;;
84588;Laerm;74812;47.466;8.992;2024-01-06T10:29:38;47.87;44.47;53.91;;
84588;Laerm;74812;47.466;8.992;2024-01-06T10:32:04;48.67;45.27;53.96;;
84588;Laerm;74812;47.466;8.992;2024-01-06T10:34:29;53.20;44.87;67.83;;
84588;Laerm;74812;47.466;8.992;2024-01-06T10:36:57;47.92;45.11;57.42;;
84588;Laerm;74812;47.466;8.992;2024-01-06T10:39:23;48.48;45.30;54.73;;
84588;Laerm;74812;47.466;8.992;2024-01-06T10:41:48;49.13;45.17;58.92;;
84588;Laerm;74812;47.466;8.992;2024-01-06T10:44:15;47.90;44.80;53.76;;
84588;Laerm;74812;47.466;8.992;2024-01-06T10:46:41;53.15;45.72;67.91;;
84588;Laerm;74812;47.466;8.992;2024-01-06T10:49:06;53.87;45.01;69.72;;
84588;Laerm;74812;47.466;8.992;2024-01-06T10:51:38;50.26;45.11;65.39;;
84588;Laerm;74812;47.466;8.992;2024-01-06T10:54:04;48.76;45.17;63.06;;
84588;Laerm;74812;47.466;8.992;2024-01-06T10:56:30;47.79;44.73;53.13;;
84588;Laerm;74812;47.466;8.992;2024-01-06T10:58:57;47.79;44.97;60.93;;
84588;Laerm;74812;47.466;8.992;2024-01-06T11:01:23;49.04;45.39;57.79;;
84588;Laerm;74812;47.466;8.992;2024-01-06T11:03:52;53.60;45.51;66.92;;
84588;Laerm;74812;47.466;8.992;2024-01-06T11:06:19;51.45;44.94;66.27;;
84588;Laerm;74812;47.466;8.992;2024-01-06T11:11:29;49.58;44.73;61.52;;
84588;Laerm;74812;47.466;8.992;2024-01-06T11:16:39;50.82;45.11;67.04;;
84588;Laerm;74812;47.466;8.992;2024-01-06T11:19:41;47.82;45.17;52.55;;
84588;Laerm;74812;47.466;8.992;2024-01-06T11:21:50;53.50;45.23;68.62;;
84588;Laerm;74812;47.466;8.992;2024-01-06T11:24:18;49.72;45.39;71.63;;
84588;Laerm;74812;47.466;8.992;2024-01-06T11:26:50;50.07;44.97;61.22;;
84588;Laerm;74812;47.466;8.992;2024-01-06T11:29:15;48.93;44.94;57.90;;
84588;Laerm;74812;47.466;8.992;2024-01-06T11:31:41;54.19;44.97;70.49;;
84588;Laerm;74812;47.466;8.992;2024-01-06T11:34:12;54.88;45.42;72.56;;
84588;Laerm;74812;47.466;8.992;2024-01-06T11:36:42;55.83;45.33;68.09;;
84588;Laerm;74812;47.466;8.992;2024-01-06T11:39:08;48.45;45.27;53.79;;
84588;Laerm;74812;47.466;8.992;2024-01-06T11:41:54;50.63;45.72;62.36;;
84588;Laerm;74812;47.466;8.992;2024-01-06T11:44:21;49.02;45.54;55.90;;
84588;Laerm;74812;47.466;8.992;2024-01-06T11:46:47;54.74;46.15;70.72;;
84588;Laerm;74812;47.466;8.992;2024-01-06T11:49:14;49.17;45.75;57.82;;
84588;Laerm;74812;47.466;8.992;2024-01-06T11:51:40;50.88;45.97;62.58;;
84588;Laerm;74812;47.466;8.992;2024-01-06T11:54:06;52.04;45.69;65.47;;
84588;Laerm;74812;47.466;8.992;2024-01-06T11:56:31;54.63;45.57;69.49;;
84588;Laerm;74812;47.466;8.992;2024-01-06T11:58:57;49.86;45.66;59.00;;
84588;Laerm;74812;47.466;8.992;2024-01-06T12:01:22;56.48;46.20;69.86;;
84588;Laerm;74812;47.466;8.992;2024-01-06T12:03:53;48.94;45.63;53.53;;
84588;Laerm;74812;47.466;8.992;2024-01-06T12:06:19;48.82;45.66;55.46;;
84588;Laerm;74812;47.466;8.992;2024-01-06T12:08:46;54.38;45.23;68.40;;
84588;Laerm;74812;47.466;8.992;2024-01-06T12:11:12;49.21;45.63;58.07;;
84588;Laerm;74812;47.466;8.992;2024-01-06T12:13:37;48.89;45.83;56.73;;
84588;Laerm;74812;47.466;8.992;2024-01-06T12:16:03;50.79;45.86;64.71;;
84588;Laerm;74812;47.466;8.992;2024-01-06T12:18:28;57.02;46.28;70.94;;
84588;Laerm;74812;47.466;8.992;2024-01-06T12:20:54;52.74;45.99;66.43;;
84588;Laerm;74812;47.466;8.992;2024-01-06T12:23:29;49.35;46.07;54.20;;
84588;Laerm;74812;47.466;8.992;2024-01-06T12:25:55;49.42;45.86;59.68;;
84588;Laerm;74812;47.466;8.992;2024-01-06T12:28:20;54.83;45.83;71.41;;
84588;Laerm;74812;47.466;8.992;2024-01-06T12:30:46;52.69;45.54;66.64;;
84588;Laerm;74812;47.466;8.992;2024-01-06T12:33:12;53.90;45.72;77.60;;
84588;Laerm;74812;47.466;8.992;2024-01-06T12:35:37;53.07;45.33;74.95;;
84588;Laerm;74812;47.466;8.992;2024-01-06T12:38:03;52.07;45.75;68.80;;
84588;Laerm;74812;47.466;8.992;2024-01-06T12:40:34;55.46;45.65;68.73;;
84588;Laerm;74812;47.466;8.992;2024-01-06T12:43:00;50.80;45.66;68.48;;
84588;Laerm;74812;47.466;8.992;2024-01-06T12:45:26;56.61;45.91;73.15;;
84588;Laerm;74812;47.466;8.992;2024-01-06T12:47:53;59.64;45.14;73.88;;
84588;Laerm;74812;47.466;8.992;2024-01-06T12:50:19;56.03;45.33;72.09;;
84588;Laerm;74812;47.466;8.992;2024-01-06T12:52:44;53.99;45.23;67.65;;
84588;Laerm;74812;47.466;8.992;2024-01-06T12:55:11;50.92;45.36;61.88;;
84588;Laerm;74812;47.466;8.992;2024-01-06T12:57:37;54.02;45.39;68.89;;
84588;Laerm;74812;47.466;8.992;2024-01-06T13:00:03;48.43;45.77;52.78;;
84588;Laerm;74812;47.466;8.992;2024-01-06T13:02:29;48.55;45.39;54.58;;
84588;Laerm;74812;47.466;8.992;2024-01-06T13:04:54;48.36;45.33;56.25;;
84588;Laerm;74812;47.466;8.992;2024-01-06T13:07:20;52.14;45.48;65.62;;
84588;Laerm;74812;47.466;8.992;2024-01-06T13:09:47;52.27;45.01;67.12;;
84588;Laerm;74812;47.466;8.992;2024-01-06T13:12:12;54.20;45.33;78.69;;
84588;Laerm;74812;47.466;8.992;2024-01-06T13:14:38;50.12;45.31;69.77;;
84588;Laerm;74812;47.466;8.992;2024-01-06T13:17:03;53.72;45.23;74.09;;
84588;Laerm;74812;47.466;8.992;2024-01-06T13:19:29;48.61;44.94;54.16;;
84588;Laerm;74812;47.466;8.992;2024-01-06T13:21:54;56.62;45.23;71.09;;
84588;Laerm;74812;47.466;8.992;2024-01-06T13:24:20;56.14;45.63;69.40;;
84588;Laerm;74812;47.466;8.992;2024-01-06T13:26:45;53.59;45.77;68.67;;
84588;Laerm;74812;47.466;8.992;2024-01-06T13:29:11;48.74;45.63;58.30;;
84588;Laerm;74812;47.466;8.992;2024-01-06T13:31:37;49.50;45.66;61.11;;
84588;Laerm;74812;47.466;8.992;2024-01-06T13:34:02;55.66;46.64;67.82;;
84588;Laerm;74812;47.466;8.992;2024-01-06T13:36:28;50.48;46.57;65.10;;
84588;Laerm;74812;47.466;8.992;2024-01-06T13:38:53;57.09;46.18;73.71;;
84588;Laerm;74812;47.466;8.992;2024-01-06T13:41:19;57.35;46.89;70.49;;
84588;Laerm;74812;47.466;8.992;2024-01-06T13:43:45;50.27;46.80;58.63;;